sensor_id;sensor_type;location;lat;lon;timestamp;temperature;humidity
2158;DHT22;41972;48.774;9.282;2022-12-07T00:01:13;3.60;99.90
2158;DHT22;41972;48.774;9.282;2022-12-07T00:03:41;3.70;99.90
2158;DHT22;41972;48.774;9.282;2022-12-07T00:06:08;3.60;99.90
2158;DHT22;41972;48.774;9.282;2022-12-07T00:08:35;3.60;99.90
2158;DHT22;41972;48.774;9.282;2022-12-07T00:11:11;3.60;99.90
2158;DHT22;41972;48.774;9.282;2022-12-07T00:13:38;3.60;99.90
2158;DHT22;41972;48.774;9.282;2022-12-07T00:16:10;3.60;99.90
2158;DHT22;41972;48.774;9.282;2022-12-07T00:18:36;3.60;99.90
2158;DHT22;41972;48.774;9.282;2022-12-07T00:21:11;3.70;99.90
2158;DHT22;41972;48.774;9.282;2022-12-07T00:23:39;3.70;99.90
2158;DHT22;41972;48.774;9.282;2022-12-07T00:26:07;3.70;99.90
2158;DHT22;41972;48.774;9.282;2022-12-07T00:28:33;3.60;99.90
2158;DHT22;41972;48.774;9.282;2022-12-07T00:31:12;3.60;99.90
2158;DHT22;41972;48.774;9.282;2022-12-07T00:33:38;3.50;99.90
2158;DHT22;41972;48.774;9.282;2022-12-07T00:36:06;3.50;99.90
2158;DHT22;41972;48.774;9.282;2022-12-07T00:38:33;3.50;99.90
2158;DHT22;41972;48.774;9.282;2022-12-07T00:41:02;3.50;99.90
2158;DHT22;41972;48.774;9.282;2022-12-07T00:43:29;3.50;99.90
2158;DHT22;41972;48.774;9.282;2022-12-07T00:45:55;3.70;99.90
2158;DHT22;41972;48.774;9.282;2022-12-07T00:48:22;3.50;99.90
2158;DHT22;41972;48.774;9.282;2022-12-07T00:50:48;3.50;99.90
2158;DHT22;41972;48.774;9.282;2022-12-07T00:53:15;3.40;99.90
2158;DHT22;41972;48.774;9.282;2022-12-07T00:55:41;3.50;99.90
2158;DHT22;41972;48.774;9.282;2022-12-07T00:58:07;3.50;99.90
2158;DHT22;41972;48.774;9.282;2022-12-07T01:00:35;3.60;99.90
2158;DHT22;41972;48.774;9.282;2022-12-07T01:03:03;3.60;99.90
2158;DHT22;41972;48.774;9.282;2022-12-07T01:05:29;3.50;99.90
2158;DHT22;41972;48.774;9.282;2022-12-07T01:07:54;3.50;99.90
2158;DHT22;41972;48.774;9.282;2022-12-07T01:10:20;3.50;99.90
2158;DHT22;41972;48.774;9.282;2022-12-07T01:12:45;3.40;99.90
2158;DHT22;41972;48.774;9.282;2022-12-07T01:15:11;3.50;99.90
2158;DHT22;41972;48.774;9.282;2022-12-07T01:17:37;3.40;99.90
2158;DHT22;41972;48.774;9.282;2022-12-07T01:20:03;3.40;99.90
2158;DHT22;41972;48.774;9.282;2022-12-07T01:22:29;3.50;99.90
2158;DHT22;41972;48.774;9.282;2022-12-07T01:24:55;3.50;99.90
2158;DHT22;41972;48.774;9.282;2022-12-07T01:27:20;3.40;99.90
2158;DHT22;41972;48.774;9.282;2022-12-07T01:29:46;3.50;99.90
2158;DHT22;41972;48.774;9.282;2022-12-07T01:32:12;3.50;99.90
2158;DHT22;41972;48.774;9.282;2022-12-07T01:34:37;3.50;99.90
2158;DHT22;41972;48.774;9.282;2022-12-07T01:37:04;3.40;99.90
2158;DHT22;41972;48.774;9.282;2022-12-07T01:39:29;3.30;99.90
2158;DHT22;41972;48.774;9.282;2022-12-07T01:41:55;3.30;99.90
2158;DHT22;41972;48.774;9.282;2022-12-07T01:44:29;3.30;99.90
2158;DHT22;41972;48.774;9.282;2022-12-07T01:47:03;3.20;99.90
2158;DHT22;41972;48.774;9.282;2022-12-07T01:49:35;3.30;99.90
2158;DHT22;41972;48.774;9.282;2022-12-07T01:54:36;3.50;99.90
2158;DHT22;41972;48.774;9.282;2022-12-07T01:57:02;3.30;99.90
2158;DHT22;41972;48.774;9.282;2022-12-07T01:59:29;3.30;99.90
2158;DHT22;41972;48.774;9.282;2022-12-07T02:01:55;3.40;99.90
2158;DHT22;41972;48.774;9.282;2022-12-07T02:04:23;3.40;99.90
2158;DHT22;41972;48.774;9.282;2022-12-07T02:06:49;3.30;99.90
2158;DHT22;41972;48.774;9.282;2022-12-07T02:09:15;3.30;99.90
2158;DHT22;41972;48.774;9.282;2022-12-07T02:11:41;3.30;99.90
2158;DHT22;41972;48.774;9.282;2022-12-07T02:14:07;3.40;99.90
2158;DHT22;41972;48.774;9.282;2022-12-07T02:19:57;3.40;99.90
2158;DHT22;41972;48.774;9.282;2022-12-07T02:28:35;3.50;99.90
2158;DHT22;41972;48.774;9.282;2022-12-07T02:31:17;3.50;99.90
2158;DHT22;41972;48.774;9.282;2022-12-07T02:33:48;3.40;99.90
2158;DHT22;41972;48.774;9.282;2022-12-07T02:36:39;3.50;99.90
2158;DHT22;41972;48.774;9.282;2022-12-07T02:39:19;3.40;99.90
2158;DHT22;41972;48.774;9.282;2022-12-07T02:41:52;3.40;99.90
2158;DHT22;41972;48.774;9.282;2022-12-07T02:44:23;3.50;99.90
2158;DHT22;41972;48.774;9.282;2022-12-07T02:47:02;3.50;99.90
2158;DHT22;41972;48.774;9.282;2022-12-07T02:49:30;3.50;99.90
2158;DHT22;41972;48.774;9.282;2022-12-07T02:51:56;3.50;99.90
2158;DHT22;41972;48.774;9.282;2022-12-07T02:54:22;3.60;99.90
2158;DHT22;41972;48.774;9.282;2022-12-07T02:57:04;3.60;99.90
2158;DHT22;41972;48.774;9.282;2022-12-07T03:00:09;3.40;99.90
2158;DHT22;41972;48.774;9.282;2022-12-07T03:02:59;3.40;99.90
2158;DHT22;41972;48.774;9.282;2022-12-07T03:05:52;3.20;99.90
2158;DHT22;41972;48.774;9.282;2022-12-07T03:11:25;3.00;99.90
2158;DHT22;41972;48.774;9.282;2022-12-07T03:13:55;2.90;99.90
2158;DHT22;41972;48.774;9.282;2022-12-07T03:16:31;2.80;99.90
2158;DHT22;41972;48.774;9.282;2022-12-07T03:19:03;2.70;99.90
2158;DHT22;41972;48.774;9.282;2022-12-07T03:21:38;2.90;99.90
2158;DHT22;41972;48.774;9.282;2022-12-07T03:24:09;2.80;99.90
2158;DHT22;41972;48.774;9.282;2022-12-07T03:26:42;2.50;99.90
2158;DHT22;41972;48.774;9.282;2022-12-07T03:29:24;2.70;99.90
2158;DHT22;41972;48.774;9.282;2022-12-07T03:31:59;2.70;99.90
2158;DHT22;41972;48.774;9.282;2022-12-07T03:34:31;2.70;99.90
2158;DHT22;41972;48.774;9.282;2022-12-07T03:37:06;2.60;99.90
2158;DHT22;41972;48.774;9.282;2022-12-07T03:39:48;2.60;99.90
2158;DHT22;41972;48.774;9.282;2022-12-07T03:42:16;2.60;99.90
2158;DHT22;41972;48.774;9.282;2022-12-07T03:44:42;2.60;99.90
2158;DHT22;41972;48.774;9.282;2022-12-07T03:47:38;2.50;99.90
2158;DHT22;41972;48.774;9.282;2022-12-07T03:52:46;2.50;99.90
2158;DHT22;41972;48.774;9.282;2022-12-07T03:55:34;2.60;99.90
2158;DHT22;41972;48.774;9.282;2022-12-07T03:58:05;2.60;99.90
2158;DHT22;41972;48.774;9.282;2022-12-07T04:00:33;2.40;99.90
2158;DHT22;41972;48.774;9.282;2022-12-07T04:02:58;2.40;99.90
2158;DHT22;41972;48.774;9.282;2022-12-07T04:05:24;2.30;99.90
2158;DHT22;41972;48.774;9.282;2022-12-07T04:07:50;2.20;99.90
2158;DHT22;41972;48.774;9.282;2022-12-07T04:10:16;2.30;99.90
2158;DHT22;41972;48.774;9.282;2022-12-07T04:12:41;2.40;99.90
2158;DHT22;41972;48.774;9.282;2022-12-07T04:15:08;2.40;99.90
2158;DHT22;41972;48.774;9.282;2022-12-07T04:17:33;2.20;99.90
2158;DHT22;41972;48.774;9.282;2022-12-07T04:19:59;2.10;99.90
2158;DHT22;41972;48.774;9.282;2022-12-07T04:22:24;2.10;99.90
2158;DHT22;41972;48.774;9.282;2022-12-07T04:24:50;2.10;99.90
2158;DHT22;41972;48.774;9.282;2022-12-07T04:27:15;2.10;99.90
2158;DHT22;41972;48.774;9.282;2022-12-07T04:29:41;1.90;99.90
2158;DHT22;41972;48.774;9.282;2022-12-07T04:32:06;1.80;99.90
2158;DHT22;41972;48.774;9.282;2022-12-07T04:34:32;1.60;99.90
2158;DHT22;41972;48.774;9.282;2022-12-07T04:36:58;1.30;99.90
2158;DHT22;41972;48.774;9.282;2022-12-07T04:39:27;1.20;99.90
2158;DHT22;41972;48.774;9.282;2022-12-07T04:41:53;1.10;99.90
2158;DHT22;41972;48.774;9.282;2022-12-07T04:44:19;1.00;99.90
2158;DHT22;41972;48.774;9.282;2022-12-07T04:46:46;1.00;99.90
2158;DHT22;41972;48.774;9.282;2022-12-07T04:49:12;0.90;99.90
2158;DHT22;41972;48.774;9.282;2022-12-07T04:51:38;0.90;99.90
2158;DHT22;41972;48.774;9.282;2022-12-07T04:54:04;1.10;99.90
2158;DHT22;41972;48.774;9.282;2022-12-07T04:56:30;1.20;99.90
2158;DHT22;41972;48.774;9.282;2022-12-07T04:58:56;1.50;99.90
2158;DHT22;41972;48.774;9.282;2022-12-07T05:01:24;1.80;99.90
2158;DHT22;41972;48.774;9.282;2022-12-07T05:03:50;1.90;99.90
2158;DHT22;41972;48.774;9.282;2022-12-07T05:06:15;2.00;99.90
2158;DHT22;41972;48.774;9.282;2022-12-07T05:08:44;2.10;99.90
2158;DHT22;41972;48.774;9.282;2022-12-07T05:11:10;2.10;99.90
2158;DHT22;41972;48.774;9.282;2022-12-07T05:13:56;2.10;99.90
2158;DHT22;41972;48.774;9.282;2022-12-07T05:16:21;2.20;99.90
2158;DHT22;41972;48.774;9.282;2022-12-07T05:18:47;2.20;99.90
2158;DHT22;41972;48.774;9.282;2022-12-07T05:21:12;2.20;99.90
2158;DHT22;41972;48.774;9.282;2022-12-07T05:23:38;2.20;99.90
2158;DHT22;41972;48.774;9.282;2022-12-07T05:26:03;2.20;99.90
2158;DHT22;41972;48.774;9.282;2022-12-07T05:28:29;2.20;99.90
2158;DHT22;41972;48.774;9.282;2022-12-07T05:30:54;2.20;99.90
2158;DHT22;41972;48.774;9.282;2022-12-07T05:33:20;2.20;99.90
2158;DHT22;41972;48.774;9.282;2022-12-07T05:35:45;2.30;99.90
2158;DHT22;41972;48.774;9.282;2022-12-07T05:38:11;2.30;99.90
2158;DHT22;41972;48.774;9.282;2022-12-07T05:40:37;2.30;99.90
2158;DHT22;41972;48.774;9.282;2022-12-07T05:43:03;2.30;99.90
2158;DHT22;41972;48.774;9.282;2022-12-07T05:45:29;2.30;99.90
2158;DHT22;41972;48.774;9.282;2022-12-07T05:47:54;2.10;99.90
2158;DHT22;41972;48.774;9.282;2022-12-07T05:50:20;2.00;99.90
2158;DHT22;41972;48.774;9.282;2022-12-07T05:52:46;1.80;99.90
2158;DHT22;41972;48.774;9.282;2022-12-07T05:55:11;1.70;99.90
2158;DHT22;41972;48.774;9.282;2022-12-07T05:57:37;1.70;99.90
2158;DHT22;41972;48.774;9.282;2022-12-07T06:00:04;1.40;99.90
2158;DHT22;41972;48.774;9.282;2022-12-07T06:02:30;1.30;99.90
2158;DHT22;41972;48.774;9.282;2022-12-07T06:04:55;1.00;99.90
2158;DHT22;41972;48.774;9.282;2022-12-07T06:07:21;0.80;99.90
2158;DHT22;41972;48.774;9.282;2022-12-07T06:09:46;0.90;99.90
2158;DHT22;41972;48.774;9.282;2022-12-07T06:12:12;0.90;99.90
2158;DHT22;41972;48.774;9.282;2022-12-07T06:14:57;1.00;99.90
2158;DHT22;41972;48.774;9.282;2022-12-07T06:17:23;1.00;99.90
2158;DHT22;41972;48.774;9.282;2022-12-07T06:19:48;1.00;99.90
2158;DHT22;41972;48.774;9.282;2022-12-07T06:22:14;1.10;99.90
2158;DHT22;41972;48.774;9.282;2022-12-07T06:24:41;1.10;99.90
2158;DHT22;41972;48.774;9.282;2022-12-07T06:27:07;1.20;99.90
2158;DHT22;41972;48.774;9.282;2022-12-07T06:29:33;1.20;99.90
2158;DHT22;41972;48.774;9.282;2022-12-07T06:31:59;1.30;99.90
2158;DHT22;41972;48.774;9.282;2022-12-07T06:34:25;1.50;99.90
2158;DHT22;41972;48.774;9.282;2022-12-07T06:36:51;1.50;99.90
2158;DHT22;41972;48.774;9.282;2022-12-07T06:39:19;1.60;99.90
2158;DHT22;41972;48.774;9.282;2022-12-07T06:41:45;1.20;99.90
2158;DHT22;41972;48.774;9.282;2022-12-07T06:44:11;1.10;99.90
2158;DHT22;41972;48.774;9.282;2022-12-07T06:46:37;1.30;99.90
2158;DHT22;41972;48.774;9.282;2022-12-07T06:49:03;1.30;99.90
2158;DHT22;41972;48.774;9.282;2022-12-07T06:51:30;1.40;99.90
2158;DHT22;41972;48.774;9.282;2022-12-07T06:53:55;1.40;99.90
2158;DHT22;41972;48.774;9.282;2022-12-07T06:56:21;1.50;99.90
2158;DHT22;41972;48.774;9.282;2022-12-07T06:58:48;1.70;99.90
2158;DHT22;41972;48.774;9.282;2022-12-07T07:01:15;1.70;99.90
2158;DHT22;41972;48.774;9.282;2022-12-07T07:03:41;1.50;99.90
2158;DHT22;41972;48.774;9.282;2022-12-07T07:06:07;1.30;99.90
2158;DHT22;41972;48.774;9.282;2022-12-07T07:08:37;1.30;99.90
2158;DHT22;41972;48.774;9.282;2022-12-07T07:11:03;1.40;99.90
2158;DHT22;41972;48.774;9.282;2022-12-07T07:13:28;1.40;99.90
2158;DHT22;41972;48.774;9.282;2022-12-07T07:15:54;1.50;99.90
2158;DHT22;41972;48.774;9.282;2022-12-07T07:18:20;1.70;99.90
2158;DHT22;41972;48.774;9.282;2022-12-07T07:20:45;1.70;99.90
2158;DHT22;41972;48.774;9.282;2022-12-07T07:23:11;1.80;99.90
2158;DHT22;41972;48.774;9.282;2022-12-07T07:25:37;1.90;99.90
2158;DHT22;41972;48.774;9.282;2022-12-07T07:28:03;2.10;99.90
2158;DHT22;41972;48.774;9.282;2022-12-07T07:30:29;2.10;99.90
2158;DHT22;41972;48.774;9.282;2022-12-07T07:32:59;2.20;99.90
2158;DHT22;41972;48.774;9.282;2022-12-07T07:35:26;2.40;99.90
2158;DHT22;41972;48.774;9.282;2022-12-07T07:37:51;2.60;99.90
2158;DHT22;41972;48.774;9.282;2022-12-07T07:40:17;2.70;99.90
2158;DHT22;41972;48.774;9.282;2022-12-07T07:42:43;2.80;99.90
2158;DHT22;41972;48.774;9.282;2022-12-07T07:45:09;2.90;99.90
2158;DHT22;41972;48.774;9.282;2022-12-07T07:47:34;2.80;99.90
2158;DHT22;41972;48.774;9.282;2022-12-07T07:50:00;2.90;99.90
2158;DHT22;41972;48.774;9.282;2022-12-07T07:52:26;3.10;99.90
2158;DHT22;41972;48.774;9.282;2022-12-07T07:54:52;3.20;99.90
2158;DHT22;41972;48.774;9.282;2022-12-07T07:57:17;3.20;99.90
2158;DHT22;41972;48.774;9.282;2022-12-07T07:59:43;3.20;99.90
2158;DHT22;41972;48.774;9.282;2022-12-07T08:02:16;3.20;99.90
2158;DHT22;41972;48.774;9.282;2022-12-07T08:04:43;3.20;99.90
2158;DHT22;41972;48.774;9.282;2022-12-07T08:07:09;3.40;99.90
2158;DHT22;41972;48.774;9.282;2022-12-07T08:09:34;3.50;99.90
2158;DHT22;41972;48.774;9.282;2022-12-07T08:12:00;3.60;99.90
2158;DHT22;41972;48.774;9.282;2022-12-07T08:14:26;3.50;99.90
2158;DHT22;41972;48.774;9.282;2022-12-07T08:16:52;3.60;99.90
2158;DHT22;41972;48.774;9.282;2022-12-07T08:19:18;3.60;99.90
2158;DHT22;41972;48.774;9.282;2022-12-07T08:21:43;3.60;99.90
2158;DHT22;41972;48.774;9.282;2022-12-07T08:24:09;3.80;99.90
2158;DHT22;41972;48.774;9.282;2022-12-07T08:26:34;3.80;99.90
2158;DHT22;41972;48.774;9.282;2022-12-07T08:29:00;3.90;99.90
2158;DHT22;41972;48.774;9.282;2022-12-07T08:31:26;4.00;99.90
2158;DHT22;41972;48.774;9.282;2022-12-07T08:33:53;4.10;99.90
2158;DHT22;41972;48.774;9.282;2022-12-07T08:36:19;4.20;99.90
2158;DHT22;41972;48.774;9.282;2022-12-07T08:38:45;4.50;99.90
2158;DHT22;41972;48.774;9.282;2022-12-07T08:41:11;4.80;99.90
2158;DHT22;41972;48.774;9.282;2022-12-07T08:43:37;4.90;99.90
2158;DHT22;41972;48.774;9.282;2022-12-07T08:46:21;5.10;99.90
2158;DHT22;41972;48.774;9.282;2022-12-07T08:49:03;5.10;99.90
2158;DHT22;41972;48.774;9.282;2022-12-07T08:51:30;5.00;99.90
2158;DHT22;41972;48.774;9.282;2022-12-07T08:53:58;5.20;99.90
2158;DHT22;41972;48.774;9.282;2022-12-07T08:56:24;5.40;99.90
2158;DHT22;41972;48.774;9.282;2022-12-07T08:58:50;5.20;99.90
2158;DHT22;41972;48.774;9.282;2022-12-07T09:01:17;5.40;99.90
2158;DHT22;41972;48.774;9.282;2022-12-07T09:03:43;5.50;99.90
2158;DHT22;41972;48.774;9.282;2022-12-07T09:06:08;5.50;99.90
2158;DHT22;41972;48.774;9.282;2022-12-07T09:08:37;5.00;99.90
2158;DHT22;41972;48.774;9.282;2022-12-07T09:11:04;5.00;99.90
2158;DHT22;41972;48.774;9.282;2022-12-07T09:13:30;4.80;99.90
2158;DHT22;41972;48.774;9.282;2022-12-07T09:15:55;4.80;99.90
2158;DHT22;41972;48.774;9.282;2022-12-07T09:18:21;5.20;99.90
2158;DHT22;41972;48.774;9.282;2022-12-07T09:20:46;5.50;99.90
2158;DHT22;41972;48.774;9.282;2022-12-07T09:23:12;5.60;99.90
2158;DHT22;41972;48.774;9.282;2022-12-07T09:25:38;5.40;99.90
2158;DHT22;41972;48.774;9.282;2022-12-07T09:28:03;5.00;99.90
2158;DHT22;41972;48.774;9.282;2022-12-07T09:30:29;5.10;99.90
2158;DHT22;41972;48.774;9.282;2022-12-07T09:32:56;5.00;99.90
2158;DHT22;41972;48.774;9.282;2022-12-07T09:35:22;5.10;99.90
2158;DHT22;41972;48.774;9.282;2022-12-07T09:37:47;5.00;99.90
2158;DHT22;41972;48.774;9.282;2022-12-07T09:40:14;5.00;99.90
2158;DHT22;41972;48.774;9.282;2022-12-07T09:42:43;4.90;99.90
2158;DHT22;41972;48.774;9.282;2022-12-07T09:47:46;5.00;99.90
2158;DHT22;41972;48.774;9.282;2022-12-07T09:50:15;4.70;99.90
2158;DHT22;41972;48.774;9.282;2022-12-07T09:52:43;5.00;99.90
2158;DHT22;41972;48.774;9.282;2022-12-07T09:55:16;5.30;99.90
2158;DHT22;41972;48.774;9.282;2022-12-07T09:57:42;5.60;99.90
2158;DHT22;41972;48.774;9.282;2022-12-07T10:00:16;5.80;99.90
2158;DHT22;41972;48.774;9.282;2022-12-07T10:02:46;5.60;99.90
2158;DHT22;41972;48.774;9.282;2022-12-07T10:05:18;5.80;99.90
2158;DHT22;41972;48.774;9.282;2022-12-07T10:07:45;5.80;99.90
2158;DHT22;41972;48.774;9.282;2022-12-07T10:10:17;6.10;99.90
2158;DHT22;41972;48.774;9.282;2022-12-07T10:13:04;5.70;99.90
2158;DHT22;41972;48.774;9.282;2022-12-07T10:15:47;5.50;99.90
2158;DHT22;41972;48.774;9.282;2022-12-07T10:18:51;5.90;99.90
2158;DHT22;41972;48.774;9.282;2022-12-07T10:21:22;6.10;99.90
2158;DHT22;41972;48.774;9.282;2022-12-07T10:26:49;6.40;99.90
2158;DHT22;41972;48.774;9.282;2022-12-07T10:29:21;6.70;99.90
2158;DHT22;41972;48.774;9.282;2022-12-07T10:34:32;7.10;99.90
2158;DHT22;41972;48.774;9.282;2022-12-07T10:39:47;7.10;99.90
2158;DHT22;41972;48.774;9.282;2022-12-07T10:42:27;6.20;99.90
2158;DHT22;41972;48.774;9.282;2022-12-07T10:45:16;5.70;99.90
2158;DHT22;41972;48.774;9.282;2022-12-07T10:47:52;5.70;99.90
2158;DHT22;41972;48.774;9.282;2022-12-07T10:50:27;6.10;99.90
2158;DHT22;41972;48.774;9.282;2022-12-07T10:55:58;6.20;99.90
2158;DHT22;41972;48.774;9.282;2022-12-07T11:01:25;6.00;99.90
2158;DHT22;41972;48.774;9.282;2022-12-07T11:04:12;6.00;99.90
2158;DHT22;41972;48.774;9.282;2022-12-07T11:12:40;5.90;99.90
2158;DHT22;41972;48.774;9.282;2022-12-07T11:15:17;5.70;99.90
2158;DHT22;41972;48.774;9.282;2022-12-07T11:18:07;5.40;99.90
2158;DHT22;41972;48.774;9.282;2022-12-07T11:23:56;5.40;99.90
2158;DHT22;41972;48.774;9.282;2022-12-07T11:29:41;5.50;99.90
2158;DHT22;41972;48.774;9.282;2022-12-07T11:32:29;5.50;99.90
2158;DHT22;41972;48.774;9.282;2022-12-07T11:37:41;5.20;99.90
2158;DHT22;41972;48.774;9.282;2022-12-07T11:40:25;5.00;99.90
2158;DHT22;41972;48.774;9.282;2022-12-07T11:46:08;5.10;99.90
2158;DHT22;41972;48.774;9.282;2022-12-07T11:48:50;5.20;99.90
2158;DHT22;41972;48.774;9.282;2022-12-07T11:51:19;5.20;99.90
2158;DHT22;41972;48.774;9.282;2022-12-07T11:53:52;5.20;99.90
2158;DHT22;41972;48.774;9.282;2022-12-07T11:56:23;5.10;99.90
2158;DHT22;41972;48.774;9.282;2022-12-07T11:59:13;4.80;99.90
2158;DHT22;41972;48.774;9.282;2022-12-07T12:02:00;4.70;99.90
2158;DHT22;41972;48.774;9.282;2022-12-07T12:07:16;4.80;99.90
2158;DHT22;41972;48.774;9.282;2022-12-07T12:09:52;4.80;99.90
2158;DHT22;41972;48.774;9.282;2022-12-07T12:20:27;4.30;99.90
2158;DHT22;41972;48.774;9.282;2022-12-07T12:23:05;4.40;99.90
2158;DHT22;41972;48.774;9.282;2022-12-07T12:25:40;4.20;99.90
2158;DHT22;41972;48.774;9.282;2022-12-07T12:31:06;4.60;99.90
2158;DHT22;41972;48.774;9.282;2022-12-07T12:33:33;4.50;99.90
2158;DHT22;41972;48.774;9.282;2022-12-07T12:38:51;4.50;99.90
2158;DHT22;41972;48.774;9.282;2022-12-07T12:46:59;4.70;99.90
2158;DHT22;41972;48.774;9.282;2022-12-07T12:52:00;4.60;99.90
2158;DHT22;41972;48.774;9.282;2022-12-07T12:54:31;4.70;99.90
2158;DHT22;41972;48.774;9.282;2022-12-07T12:57:26;4.60;99.90
2158;DHT22;41972;48.774;9.282;2022-12-07T13:02:29;4.40;99.90
2158;DHT22;41972;48.774;9.282;2022-12-07T13:23:36;4.90;99.90
2158;DHT22;41972;48.774;9.282;2022-12-07T13:26:18;4.80;99.90
2158;DHT22;41972;48.774;9.282;2022-12-07T13:33:45;4.20;99.90
2158;DHT22;41972;48.774;9.282;2022-12-07T13:36:26;4.30;99.90
2158;DHT22;41972;48.774;9.282;2022-12-07T13:38:57;4.30;99.90
2158;DHT22;41972;48.774;9.282;2022-12-07T13:41:25;4.60;99.90
2158;DHT22;41972;48.774;9.282;2022-12-07T13:44:23;4.50;99.90
2158;DHT22;41972;48.774;9.282;2022-12-07T13:47:11;4.40;99.90
2158;DHT22;41972;48.774;9.282;2022-12-07T13:49:47;4.50;99.90
2158;DHT22;41972;48.774;9.282;2022-12-07T13:57:30;4.50;99.90
2158;DHT22;41972;48.774;9.282;2022-12-07T13:59:57;4.60;99.90
2158;DHT22;41972;48.774;9.282;2022-12-07T14:02:25;4.70;99.90
2158;DHT22;41972;48.774;9.282;2022-12-07T14:04:51;4.60;99.90
2158;DHT22;41972;48.774;9.282;2022-12-07T14:10:05;4.60;99.90
2158;DHT22;41972;48.774;9.282;2022-12-07T14:12:32;4.70;99.90
2158;DHT22;41972;48.774;9.282;2022-12-07T14:15:02;4.80;99.90
2158;DHT22;41972;48.774;9.282;2022-12-07T14:17:28;4.70;99.90
2158;DHT22;41972;48.774;9.282;2022-12-07T14:20:02;4.60;99.90
2158;DHT22;41972;48.774;9.282;2022-12-07T14:22:35;4.60;99.90
2158;DHT22;41972;48.774;9.282;2022-12-07T14:27:39;4.70;99.90
2158;DHT22;41972;48.774;9.282;2022-12-07T14:30:16;4.90;99.90
2158;DHT22;41972;48.774;9.282;2022-12-07T14:32:43;5.00;99.90
2158;DHT22;41972;48.774;9.282;2022-12-07T14:35:16;4.90;99.90
2158;DHT22;41972;48.774;9.282;2022-12-07T14:37:46;5.00;99.90
2158;DHT22;41972;48.774;9.282;2022-12-07T14:40:18;5.00;99.90
2158;DHT22;41972;48.774;9.282;2022-12-07T14:42:46;4.90;99.90
2158;DHT22;41972;48.774;9.282;2022-12-07T14:45:20;4.90;99.90
2158;DHT22;41972;48.774;9.282;2022-12-07T14:47:46;4.80;99.90
2158;DHT22;41972;48.774;9.282;2022-12-07T14:50:17;4.80;99.90
2158;DHT22;41972;48.774;9.282;2022-12-07T14:52:49;4.80;99.90
2158;DHT22;41972;48.774;9.282;2022-12-07T14:55:34;5.00;99.90
2158;DHT22;41972;48.774;9.282;2022-12-07T14:57:59;4.90;99.90
2158;DHT22;41972;48.774;9.282;2022-12-07T15:00:26;4.80;99.90
2158;DHT22;41972;48.774;9.282;2022-12-07T15:02:53;4.60;99.90
2158;DHT22;41972;48.774;9.282;2022-12-07T15:05:19;4.50;99.90
2158;DHT22;41972;48.774;9.282;2022-12-07T15:07:45;4.50;99.90
2158;DHT22;41972;48.774;9.282;2022-12-07T15:10:24;4.40;99.90
2158;DHT22;41972;48.774;9.282;2022-12-07T15:12:54;4.30;99.90
2158;DHT22;41972;48.774;9.282;2022-12-07T15:15:20;4.30;99.90
2158;DHT22;41972;48.774;9.282;2022-12-07T15:17:45;4.20;99.90
2158;DHT22;41972;48.774;9.282;2022-12-07T15:20:13;4.10;99.90
2158;DHT22;41972;48.774;9.282;2022-12-07T15:22:39;4.10;99.90
2158;DHT22;41972;48.774;9.282;2022-12-07T15:25:05;4.10;99.90
2158;DHT22;41972;48.774;9.282;2022-12-07T15:27:31;4.10;99.90
2158;DHT22;41972;48.774;9.282;2022-12-07T15:29:57;4.10;99.90
2158;DHT22;41972;48.774;9.282;2022-12-07T15:32:22;4.10;99.90
2158;DHT22;41972;48.774;9.282;2022-12-07T15:34:48;4.10;99.90
2158;DHT22;41972;48.774;9.282;2022-12-07T15:37:15;4.10;99.90
2158;DHT22;41972;48.774;9.282;2022-12-07T15:39:41;4.10;99.90
2158;DHT22;41972;48.774;9.282;2022-12-07T15:42:06;4.00;99.90
2158;DHT22;41972;48.774;9.282;2022-12-07T15:44:32;4.00;99.90
2158;DHT22;41972;48.774;9.282;2022-12-07T15:47:19;4.10;99.90
2158;DHT22;41972;48.774;9.282;2022-12-07T15:49:45;4.10;99.90
2158;DHT22;41972;48.774;9.282;2022-12-07T15:52:11;3.90;99.90
2158;DHT22;41972;48.774;9.282;2022-12-07T15:54:37;3.90;99.90
2158;DHT22;41972;48.774;9.282;2022-12-07T15:57:02;3.90;99.90
2158;DHT22;41972;48.774;9.282;2022-12-07T15:59:28;3.90;99.90
2158;DHT22;41972;48.774;9.282;2022-12-07T16:01:54;3.80;99.90
2158;DHT22;41972;48.774;9.282;2022-12-07T16:04:20;3.90;99.90
2158;DHT22;41972;48.774;9.282;2022-12-07T16:06:46;3.90;99.90
2158;DHT22;41972;48.774;9.282;2022-12-07T16:09:11;3.90;99.90
2158;DHT22;41972;48.774;9.282;2022-12-07T16:11:37;3.90;99.90
2158;DHT22;41972;48.774;9.282;2022-12-07T16:14:03;4.00;99.90
2158;DHT22;41972;48.774;9.282;2022-12-07T16:16:28;4.00;99.90
2158;DHT22;41972;48.774;9.282;2022-12-07T16:18:54;3.90;99.90
2158;DHT22;41972;48.774;9.282;2022-12-07T16:21:20;4.00;99.90
2158;DHT22;41972;48.774;9.282;2022-12-07T16:23:45;3.90;99.90
2158;DHT22;41972;48.774;9.282;2022-12-07T16:26:15;3.90;99.90
2158;DHT22;41972;48.774;9.282;2022-12-07T16:28:41;3.90;99.90
2158;DHT22;41972;48.774;9.282;2022-12-07T16:31:09;3.90;99.90
2158;DHT22;41972;48.774;9.282;2022-12-07T16:33:36;3.90;99.90
2158;DHT22;41972;48.774;9.282;2022-12-07T16:36:04;3.90;99.90
2158;DHT22;41972;48.774;9.282;2022-12-07T16:38:30;3.90;99.90
2158;DHT22;41972;48.774;9.282;2022-12-07T16:40:55;3.80;99.90
2158;DHT22;41972;48.774;9.282;2022-12-07T16:43:21;3.60;99.90
2158;DHT22;41972;48.774;9.282;2022-12-07T16:45:47;3.70;99.90
2158;DHT22;41972;48.774;9.282;2022-12-07T16:48:16;3.70;99.90
2158;DHT22;41972;48.774;9.282;2022-12-07T16:50:43;3.80;99.90
2158;DHT22;41972;48.774;9.282;2022-12-07T16:53:12;3.80;99.90
2158;DHT22;41972;48.774;9.282;2022-12-07T16:55:39;3.70;99.90
2158;DHT22;41972;48.774;9.282;2022-12-07T16:58:05;3.60;99.90
2158;DHT22;41972;48.774;9.282;2022-12-07T17:00:31;3.50;99.90
2158;DHT22;41972;48.774;9.282;2022-12-07T17:02:57;3.40;99.90
2158;DHT22;41972;48.774;9.282;2022-12-07T17:05:23;3.30;99.90
2158;DHT22;41972;48.774;9.282;2022-12-07T17:07:50;3.30;99.90
2158;DHT22;41972;48.774;9.282;2022-12-07T17:10:16;3.20;99.90
2158;DHT22;41972;48.774;9.282;2022-12-07T17:12:41;3.10;99.90
2158;DHT22;41972;48.774;9.282;2022-12-07T17:15:08;2.70;99.90
2158;DHT22;41972;48.774;9.282;2022-12-07T17:17:52;2.70;99.90
2158;DHT22;41972;48.774;9.282;2022-12-07T17:20:18;2.60;99.90
2158;DHT22;41972;48.774;9.282;2022-12-07T17:22:44;2.30;99.90
2158;DHT22;41972;48.774;9.282;2022-12-07T17:25:10;2.10;99.90
2158;DHT22;41972;48.774;9.282;2022-12-07T17:27:36;2.00;99.90
2158;DHT22;41972;48.774;9.282;2022-12-07T17:30:04;1.80;99.90
2158;DHT22;41972;48.774;9.282;2022-12-07T17:32:30;1.70;99.90
2158;DHT22;41972;48.774;9.282;2022-12-07T17:34:56;1.80;99.90
2158;DHT22;41972;48.774;9.282;2022-12-07T17:37:21;1.90;99.90
2158;DHT22;41972;48.774;9.282;2022-12-07T17:39:47;2.00;99.90
2158;DHT22;41972;48.774;9.282;2022-12-07T17:42:13;2.10;99.90
2158;DHT22;41972;48.774;9.282;2022-12-07T17:44:57;2.20;99.90
2158;DHT22;41972;48.774;9.282;2022-12-07T17:47:23;2.30;99.90
2158;DHT22;41972;48.774;9.282;2022-12-07T17:49:48;2.40;99.90
2158;DHT22;41972;48.774;9.282;2022-12-07T17:52:14;2.40;99.90
2158;DHT22;41972;48.774;9.282;2022-12-07T17:54:58;2.10;99.90
2158;DHT22;41972;48.774;9.282;2022-12-07T17:57:24;2.30;99.90
2158;DHT22;41972;48.774;9.282;2022-12-07T17:59:50;2.50;99.90
2158;DHT22;41972;48.774;9.282;2022-12-07T18:02:16;2.50;99.90
2158;DHT22;41972;48.774;9.282;2022-12-07T18:04:42;2.50;99.90
2158;DHT22;41972;48.774;9.282;2022-12-07T18:07:08;2.40;99.90
2158;DHT22;41972;48.774;9.282;2022-12-07T18:09:34;2.30;99.90